Time;durP1;ratioP1;P1;durP2;ratioP2;P2;SDS_P1;SDS_P2;PMS_P1;PMS_P2;Temp;Humidity;BMP_temperature;BMP_pressure;BME280_temperature;BME280_humidity;BME280_pressure;Samples;Min_cycle;Max_cycle;Signal;HPM_P1;HPM_P2
2022/03/28 00:00:01;;;;;;;10.33;2.50;;;5.80;99.90;;;;;;5033025;28;20600;-76
2022/03/28 00:02:26;;;;;;;7.05;2.50;;;5.80;99.90;;;;;;5033202;28;20033;-75
2022/03/28 00:04:52;;;;;;;20.63;2.40;;;5.80;99.90;;;;;;5033266;28;20091;-76
2022/03/28 00:07:17;;;;;;;4.97;2.10;;;5.70;99.90;;;;;;5033210;28;20216;-76
2022/03/28 00:09:43;;;;;;;13.70;2.50;;;5.70;99.90;;;;;;5033175;28;20048;-78
2022/03/28 00:12:10;;;;;;;37.38;2.72;;;5.70;99.90;;;;;;5033183;28;20087;-76
2022/03/28 00:14:36;;;;;;;;;;;5.60;99.90;;;;;;5033525;28;20128;-77
2022/03/28 00:17:01;;;;;;;15.98;2.15;;;5.60;99.90;;;;;;5034670;28;19972;-77
2022/03/28 00:19:27;;;;;;;5.43;1.60;;;5.60;99.90;;;;;;5036766;28;20385;-77
2022/03/28 00:21:52;;;;;;;13.07;2.28;;;5.60;99.90;;;;;;5036835;28;20053;-77
2022/03/28 00:24:18;;;;;;;8.57;2.28;;;5.50;99.90;;;;;;5036682;28;20089;-75
2022/03/28 00:26:44;;;;;;;18.05;3.05;;;5.50;99.90;;;;;;5036722;28;20056;-76
2022/03/28 00:29:09;;;;;;;27.35;2.50;;;5.50;99.90;;;;;;5036524;28;20362;-77
2022/03/28 00:31:35;;;;;;;13.25;2.83;;;5.50;99.90;;;;;;5037046;28;20046;-78
2022/03/28 00:34:00;;;;;;;12.57;2.60;;;5.60;99.90;;;;;;5036479;28;20041;-77
2022/03/28 00:36:26;;;;;;;9.50;2.75;;;5.50;99.90;;;;;;5036529;28;20113;-75
2022/03/28 00:38:52;;;;;;;33.20;3.30;;;5.50;99.90;;;;;;5036418;28;20049;-75
2022/03/28 00:41:18;;;;;;;9.55;2.75;;;5.50;99.90;;;;;;5036382;28;20048;-75
2022/03/28 00:43:54;;;;;;;14.80;2.40;;;5.50;99.90;;;;;;5036322;28;20057;-75
2022/03/28 00:46:20;;;;;;;9.30;3.00;;;5.50;99.90;;;;;;5036747;28;20053;-74
2022/03/28 00:48:46;;;;;;;24.83;3.40;;;5.50;99.90;;;;;;5036269;28;20049;-76
2022/03/28 00:51:11;;;;;;;45.90;3.25;;;5.50;99.90;;;;;;5036182;28;20128;-77
2022/03/28 00:53:38;;;;;;;31.23;3.95;;;5.50;99.90;;;;;;5036265;28;20080;-77
2022/03/28 00:56:04;;;;;;;11.10;2.88;;;5.50;99.90;;;;;;5036111;28;20048;-75
2022/03/28 00:58:29;;;;;;;25.58;3.08;;;5.40;99.90;;;;;;5036053;28;20049;-74
2022/03/28 01:00:55;;;;;;;27.25;3.72;;;5.40;99.90;;;;;;5035947;28;20128;-74
2022/03/28 01:03:20;;;;;;;42.40;4.72;;;5.40;99.90;;;;;;5035912;28;20057;-76
2022/03/28 01:05:46;;;;;;;8.82;3.90;;;5.40;99.90;;;;;;5035625;28;20052;-75
2022/03/28 01:08:13;;;;;;;10.93;3.75;;;5.40;99.90;;;;;;5035861;28;20096;-75
2022/03/28 01:10:39;;;;;;;;;;;5.40;99.90;;;;;;5036193;28;20045;-75
2022/03/28 01:13:05;;;;;;;11.02;3.90;;;5.50;99.90;;;;;;5036247;28;19932;-75
2022/03/28 01:15:31;;;;;;;12.20;3.72;;;5.50;99.90;;;;;;5036161;28;20072;-76
2022/03/28 01:18:06;;;;;;;9.65;3.80;;;5.50;99.90;;;;;;5035594;28;20478;-75
2022/03/28 01:20:33;;;;;;;8.98;3.97;;;5.50;99.90;;;;;;5035587;28;20053;-74
2022/03/28 01:22:59;;;;;;;10.27;4.47;;;5.50;99.90;;;;;;5035192;28;20528;-75
2022/03/28 01:25:27;;;;;;;39.65;4.50;;;5.60;99.90;;;;;;5035426;28;20473;-76
2022/03/28 01:27:53;;;;;;;;;;;5.60;99.90;;;;;;5035638;28;20055;-77
2022/03/28 01:30:23;;;;;;;12.13;5.00;;;5.50;99.90;;;;;;5035317;28;19925;-77
2022/03/28 01:32:50;;;;;;;11.02;4.85;;;5.50;99.90;;;;;;5035339;28;20452;-75
2022/03/28 01:35:28;;;;;;;12.55;5.18;;;5.50;99.90;;;;;;5035549;28;20405;-75
2022/03/28 01:37:54;;;;;;;12.63;4.70;;;5.50;99.90;;;;;;5035290;28;20512;-75
2022/03/28 01:40:20;;;;;;;30.73;5.25;;;5.60;99.90;;;;;;5035217;28;20041;-75
2022/03/28 01:42:48;;;;;;;9.80;4.95;;;5.50;99.90;;;;;;5035123;28;20060;-77
2022/03/28 01:45:15;;;;;;;17.55;5.63;;;5.50;99.90;;;;;;5035405;28;20053;-75
2022/03/28 01:47:41;;;;;;;16.02;5.93;;;5.60;99.90;;;;;;5034242;28;20075;-77
2022/03/28 01:50:07;;;;;;;34.92;6.38;;;5.60;99.90;;;;;;5035011;28;20045;-76
2022/03/28 01:52:33;;;;;;;39.28;6.75;;;5.60;99.90;;;;;;5034970;28;20049;-74
2022/03/28 01:54:58;;;;;;;18.55;7.20;;;5.60;99.90;;;;;;5034893;28;20375;-74
2022/03/28 01:57:24;;;;;;;23.50;6.85;;;5.50;99.90;;;;;;5035484;28;20046;-76
2022/03/28 01:59:49;;;;;;;16.48;7.18;;;5.50;99.90;;;;;;5034815;28;20080;-75
2022/03/28 02:02:15;;;;;;;27.73;6.53;;;5.50;99.90;;;;;;5034739;28;20386;-75
2022/03/28 02:04:41;;;;;;;29.20;6.88;;;5.50;99.90;;;;;;5034776;28;20397;-75
2022/03/28 02:07:06;;;;;;;83.82;8.65;;;5.50;99.90;;;;;;5034677;28;20041;-75
2022/03/28 02:09:32;;;;;;;53.85;8.77;;;5.50;99.90;;;;;;5034359;28;20467;-75
2022/03/28 02:11:57;;;;;;;59.38;9.15;;;5.40;99.90;;;;;;5034588;28;20041;-76
2022/03/28 02:14:23;;;;;;;80.13;9.50;;;5.40;99.90;;;;;;5034553;28;20057;-74
2022/03/28 02:16:48;;;;;;;16.90;7.78;;;5.40;99.90;;;;;;5034809;28;20461;-76
2022/03/28 02:19:14;;;;;;;26.67;8.07;;;5.40;99.90;;;;;;5034452;28;20394;-75
2022/03/28 02:21:40;;;;;;;57.80;9.32;;;5.40;99.90;;;;;;5034419;28;20037;-74
2022/03/28 02:24:05;;;;;;;25.88;8.23;;;5.40;99.90;;;;;;5034392;28;20428;-74
2022/03/28 02:26:31;;;;;;;65.13;9.80;;;5.40;99.90;;;;;;5034815;28;20045;-77
2022/03/28 02:28:57;;;;;;;24.17;8.52;;;5.40;99.90;;;;;;5034166;28;20057;-77
2022/03/28 02:31:22;;;;;;;25.08;8.27;;;5.40;99.90;;;;;;5034284;28;20053;-75
2022/03/28 02:33:48;;;;;;;51.50;10.05;;;5.40;99.90;;;;;;5034172;28;20136;-74
2022/03/28 02:36:14;;;;;;;17.40;8.57;;;5.40;99.90;;;;;;5034287;28;20054;-77
2022/03/28 02:38:39;;;;;;;77.88;9.85;;;5.40;99.90;;;;;;5033837;28;20052;-75
2022/03/28 02:41:05;;;;;;;51.13;9.98;;;5.40;99.90;;;;;;5034201;28;20088;-76
2022/03/28 02:43:30;;;;;;;55.90;9.65;;;5.40;99.90;;;;;;5034226;28;20053;-76
2022/03/28 02:45:56;;;;;;;59.72;8.93;;;5.40;99.90;;;;;;5034090;28;20066;-75
2022/03/28 02:48:21;;;;;;;56.17;9.25;;;5.40;99.90;;;;;;5034122;28;20048;-76
2022/03/28 02:50:48;;;;;;;38.53;8.15;;;5.40;99.90;;;;;;5034011;28;20469;-76
2022/03/28 02:53:14;;;;;;;33.40;8.43;;;5.40;99.90;;;;;;5033815;28;20049;-76
2022/03/28 02:55:39;;;;;;;37.10;8.90;;;5.40;99.90;;;;;;5033968;28;20389;-74
2022/03/28 02:58:05;;;;;;;27.05;8.70;;;5.40;99.90;;;;;;5033907;28;20049;-76
2022/03/28 03:00:30;;;;;;;71.57;9.93;;;5.40;99.90;;;;;;5034177;28;20042;-76
2022/03/28 03:02:57;;;;;;;63.72;9.95;;;5.40;99.90;;;;;;5034048;28;20136;-76
2022/03/28 03:05:23;;;;;;;78.20;9.95;;;5.40;99.90;;;;;;5033809;28;20469;-74
2022/03/28 03:07:49;;;;;;;62.58;10.25;;;5.40;99.90;;;;;;5033760;28;20060;-76
2022/03/28 03:10:15;;;;;;;22.33;8.48;;;5.40;99.90;;;;;;5033498;28;20092;-76
2022/03/28 03:12:41;;;;;;;32.47;8.90;;;5.40;99.90;;;;;;5033774;28;20081;-76
2022/03/28 03:15:07;;;;;;;37.17;9.80;;;5.40;99.90;;;;;;5033703;28;20091;-75
2022/03/28 03:17:33;;;;;;;21.17;9.17;;;5.40;99.90;;;;;;5033523;28;20532;-77
2022/03/28 03:19:59;;;;;;;63.37;9.50;;;5.40;99.90;;;;;;5033859;28;20363;-77
2022/03/28 03:22:24;;;;;;;35.42;9.73;;;5.40;99.90;;;;;;5033496;28;20391;-76
2022/03/28 03:24:50;;;;;;;53.80;9.98;;;5.40;99.90;;;;;;5033258;28;20046;-77
2022/03/28 03:27:16;;;;;;;27.08;8.15;;;5.40;99.90;;;;;;5033652;28;20048;-76
2022/03/28 03:29:41;;;;;;;51.65;10.13;;;5.40;99.90;;;;;;5015697;28;20053;-75
2022/03/28 03:32:07;;;;;;;47.30;9.68;;;5.40;99.90;;;;;;5033321;28;20050;-77
2022/03/28 03:34:34;;;;;;;19.98;8.90;;;5.40;99.90;;;;;;5033543;28;20453;-77
2022/03/28 03:37:00;;;;;;;56.05;10.68;;;5.40;99.90;;;;;;5033431;28;20047;-77
2022/03/28 03:39:26;;;;;;;23.90;9.80;;;5.50;99.90;;;;;;5033934;28;20087;-76
2022/03/28 03:41:53;;;;;;;33.45;10.35;;;5.50;99.90;;;;;;5033607;28;20503;-76
2022/03/28 03:44:19;;;;;;;54.60;9.77;;;5.50;99.90;;;;;;5033744;28;20049;-77
2022/03/28 03:46:45;;;;;;;40.67;9.75;;;5.50;99.90;;;;;;5033671;28;20135;-77
2022/03/28 03:49:11;;;;;;;30.38;9.50;;;5.50;99.90;;;;;;5033329;28;20596;-76
2022/03/28 03:51:37;;;;;;;37.22;9.85;;;5.50;99.90;;;;;;5036030;28;20128;-77
2022/03/28 03:54:02;;;;;;;35.20;10.18;;;5.50;99.90;;;;;;5037198;28;20049;-76
2022/03/28 03:56:28;;;;;;;22.05;9.38;;;5.50;99.90;;;;;;5037612;28;20122;-74
2022/03/28 03:58:58;;;;;;;17.10;8.43;;;5.50;99.90;;;;;;5037151;28;20632;-76
2022/03/28 04:01:26;;;;;;;24.02;8.05;;;5.50;99.90;;;;;;5037062;28;20056;-73
2022/03/28 04:03:54;;;;;;;17.95;7.38;;;5.50;99.90;;;;;;5037055;28;20049;-74
2022/03/28 04:06:20;;;;;;;21.45;8.02;;;5.50;99.90;;;;;;5036994;28;20075;-74
2022/03/28 04:08:46;;;;;;;61.55;9.55;;;5.50;99.90;;;;;;5037369;28;20475;-75
2022/03/28 04:11:11;;;;;;;25.73;8.02;;;5.40;99.90;;;;;;5037373;28;20037;-74
2022/03/28 04:13:37;;;;;;;26.45;8.57;;;5.40;99.90;;;;;;5036998;28;20550;-78
2022/03/28 04:16:03;;;;;;;25.63;8.50;;;5.40;99.90;;;;;;5036881;28;20155;-76
2022/03/28 04:18:29;;;;;;;20.67;8.18;;;5.40;99.90;;;;;;5037003;28;20092;-76
2022/03/28 04:20:55;;;;;;;21.67;8.35;;;5.40;99.90;;;;;;5036807;28;20492;-75
2022/03/28 04:23:24;;;;;;;28.37;8.87;;;5.40;99.90;;;;;;5036734;28;20046;-76
2022/03/28 04:25:49;;;;;;;16.67;8.32;;;5.40;99.90;;;;;;5036415;28;20413;-75
2022/03/28 04:28:15;;;;;;;37.47;10.13;;;5.70;99.90;;;;;;5036427;28;20045;-75
2022/03/28 04:30:41;;;;;;;17.58;7.15;;;5.40;99.90;;;;;;5036923;28;20493;-76
2022/03/28 04:33:09;;;;;;;22.05;8.40;;;5.30;99.90;;;;;;5036762;28;20216;-77
2022/03/28 04:35:36;;;;;;;21.75;7.82;;;5.30;99.90;;;;;;5036415;28;20079;-75
2022/03/28 04:38:07;;;;;;;38.65;9.70;;;5.30;99.90;;;;;;5036521;28;20041;-77
2022/03/28 04:40:33;;;;;;;22.75;7.47;;;5.30;99.90;;;;;;5036840;28;20480;-76
2022/03/28 04:43:00;;;;;;;15.35;6.85;;;5.30;99.90;;;;;;5036362;28;20592;-77
2022/03/28 04:45:26;;;;;;;17.63;7.82;;;5.30;99.90;;;;;;5036325;28;20179;-77
2022/03/28 04:47:51;;;;;;;59.05;9.13;;;5.30;99.90;;;;;;5036330;28;20501;-77
2022/03/28 04:50:17;;;;;;;36.65;7.72;;;5.20;99.90;;;;;;5036197;28;20041;-76
2022/03/28 04:52:42;;;;;;;25.30;7.28;;;5.20;99.90;;;;;;5035909;28;20099;-76
2022/03/28 04:55:09;;;;;;;14.48;7.05;;;5.20;99.90;;;;;;5036166;28;20049;-76
2022/03/28 04:57:34;;;;;;;19.58;8.05;;;5.20;99.90;;;;;;5036093;28;20124;-76
2022/03/28 05:00:00;;;;;;;28.77;7.53;;;5.20;99.90;;;;;;5036113;28;20083;-76
2022/03/28 05:02:25;;;;;;;35.38;7.80;;;5.30;99.90;;;;;;5035562;28;20469;-76
2022/03/28 05:04:51;;;;;;;32.10;7.65;;;5.30;99.90;;;;;;5035979;28;20045;-77
2022/03/28 05:07:27;;;;;;;30.88;7.88;;;5.20;99.90;;;;;;5035931;28;20533;-77
2022/03/28 05:09:53;;;;;;;16.08;7.38;;;5.10;99.90;;;;;;5035748;28;20041;-77
2022/03/28 05:12:23;;;;;;;15.38;7.95;;;5.20;99.90;;;;;;5035786;28;20056;-75
2022/03/28 05:14:50;;;;;;;33.92;9.18;;;5.20;99.90;;;;;;5035814;28;20060;-75
2022/03/28 05:17:19;;;;;;;19.02;8.68;;;5.20;99.90;;;;;;5035716;28;20048;-77
2022/03/28 05:19:45;;;;;;;22.95;9.10;;;5.20;99.90;;;;;;5035617;28;20060;-77
2022/03/28 05:22:10;;;;;;;18.83;9.90;;;5.30;99.90;;;;;;5036005;28;20648;-76
2022/03/28 05:24:36;;;;;;;19.83;10.00;;;5.20;99.90;;;;;;5035633;28;20128;-76
2022/03/28 05:27:01;;;;;;;18.95;8.77;;;5.30;99.90;;;;;;5035828;28;20050;-75
2022/03/28 05:29:27;;;;;;;32.05;10.52;;;5.30;99.90;;;;;;5035156;28;20096;-75
2022/03/28 05:31:53;;;;;;;39.95;10.38;;;5.40;99.90;;;;;;5035608;28;20559;-74
2022/03/28 05:34:18;;;;;;;18.58;9.95;;;5.30;99.90;;;;;;5035358;28;20052;-74
2022/03/28 05:36:45;;;;;;;20.13;10.60;;;5.30;99.90;;;;;;5035359;28;20045;-76
2022/03/28 05:39:11;;;;;;;24.88;10.57;;;5.40;99.90;;;;;;5035684;28;20120;-76
2022/03/28 05:41:37;;;;;;;21.17;9.50;;;5.40;99.90;;;;;;5035168;28;20103;-75
2022/03/28 05:44:02;;;;;;;24.60;11.48;;;5.40;99.90;;;;;;5035460;28;20497;-74
2022/03/28 05:46:28;;;;;;;56.97;11.77;;;5.40;99.90;;;;;;5034965;28;20041;-74
2022/03/28 05:48:54;;;;;;;26.70;11.70;;;5.40;99.90;;;;;;5035097;28;20095;-76
2022/03/28 05:51:20;;;;;;;33.65;10.55;;;5.40;99.90;;;;;;5035106;28;20053;-74
2022/03/28 05:53:46;;;;;;;35.87;10.87;;;5.40;99.90;;;;;;5035055;28;20041;-75
2022/03/28 05:56:12;;;;;;;25.77;10.85;;;5.40;99.90;;;;;;5034931;28;20334;-77
2022/03/28 05:58:37;;;;;;;20.90;10.48;;;5.40;99.90;;;;;;5035232;28;20046;-76
2022/03/28 06:01:03;;;;;;;32.15;10.45;;;5.30;99.90;;;;;;5034760;28;20067;-78
2022/03/28 06:03:29;;;;;;;17.60;9.63;;;5.30;99.90;;;;;;5034832;28;20566;-77
2022/03/28 06:05:54;;;;;;;15.40;8.85;;;5.20;99.90;;;;;;5034764;28;20042;-77
2022/03/28 06:08:21;;;;;;;36.42;10.68;;;5.20;99.90;;;;;;5034742;28;20481;-76
2022/03/28 06:10:47;;;;;;;21.73;10.57;;;5.20;99.90;;;;;;5035056;28;20045;-76
2022/03/28 06:13:13;;;;;;;18.13;10.35;;;5.20;99.90;;;;;;5034750;28;20276;-76
2022/03/28 06:15:39;;;;;;;19.15;10.02;;;5.20;99.90;;;;;;5033811;28;20444;-78
2022/03/28 06:18:05;;;;;;;19.73;9.93;;;5.20;99.90;;;;;;5034227;28;20116;-78
2022/03/28 06:20:32;;;;;;;18.60;9.88;;;5.20;99.90;;;;;;5034488;28;20483;-77
2022/03/28 06:22:58;;;;;;;26.98;10.02;;;5.20;99.90;;;;;;5034442;28;20049;-75
2022/03/28 06:25:23;;;;;;;17.73;10.25;;;5.20;99.90;;;;;;5034439;28;20042;-77
2022/03/28 06:27:49;;;;;;;22.27;10.65;;;5.20;99.90;;;;;;5034037;28;20045;-77
2022/03/28 06:30:15;;;;;;;28.15;9.95;;;5.20;99.90;;;;;;5034453;28;20057;-76
2022/03/28 06:32:41;;;;;;;21.10;10.50;;;5.30;99.90;;;;;;5034261;28;20494;-76
2022/03/28 06:35:08;;;;;;;21.98;11.18;;;5.30;99.90;;;;;;5034748;28;20288;-76
2022/03/28 06:37:35;;;;;;;20.58;11.07;;;5.30;99.90;;;;;;5034263;28;20088;-74
2022/03/28 06:40:03;;;;;;;20.60;10.73;;;5.30;99.90;;;;;;5034189;28;20049;-75
2022/03/28 06:42:30;;;;;;;26.33;11.55;;;5.30;99.90;;;;;;5034313;28;20076;-76
2022/03/28 06:44:55;;;;;;;19.08;10.75;;;5.40;99.90;;;;;;5034362;28;20049;-76
2022/03/28 06:47:21;;;;;;;21.40;10.25;;;5.30;99.90;;;;;;5034108;28;20393;-75
2022/03/28 06:49:46;;;;;;;18.02;10.05;;;5.30;99.90;;;;;;5034129;28;20045;-76
2022/03/28 06:52:12;;;;;;;21.13;10.00;;;5.30;99.90;;;;;;5033864;28;20056;-77
2022/03/28 06:54:37;;;;;;;25.48;10.30;;;5.30;99.90;;;;;;5034275;28;20149;-76
2022/03/28 06:57:03;;;;;;;19.83;10.38;;;5.30;99.90;;;;;;5034312;28;20053;-75
2022/03/28 06:59:29;;;;;;;17.98;9.45;;;5.30;99.90;;;;;;5033934;28;20452;-76
2022/03/28 07:01:56;;;;;;;20.73;8.32;;;5.30;99.90;;;;;;5033826;28;20088;-76
2022/03/28 07:04:22;;;;;;;18.45;9.80;;;5.40;99.90;;;;;;5034285;28;20033;-77
2022/03/28 07:06:49;;;;;;;17.50;9.77;;;5.40;99.90;;;;;;5034136;28;20052;-75
2022/03/28 07:09:15;;;;;;;19.67;9.10;;;5.40;99.90;;;;;;5033824;28;20146;-75
2022/03/28 07:11:40;;;;;;;24.30;10.75;;;5.30;99.90;;;;;;5016183;28;20119;-76
2022/03/28 07:14:07;;;;;;;21.52;10.15;;;5.30;99.90;;;;;;5033725;28;20187;-77
2022/03/28 07:16:33;;;;;;;22.90;10.90;;;5.30;99.90;;;;;;5032488;28;20056;-77
2022/03/28 07:18:59;;;;;;;20.23;10.23;;;5.30;99.90;;;;;;5033654;28;20055;-78
2022/03/28 07:21:25;;;;;;;21.15;10.30;;;5.40;99.90;;;;;;5033714;28;20171;-77
2022/03/28 07:23:52;;;;;;;18.85;9.45;;;5.40;99.90;;;;;;5033629;28;20128;-75
2022/03/28 07:26:19;;;;;;;20.95;9.88;;;5.40;99.90;;;;;;5037723;28;20125;-78
2022/03/28 07:28:44;;;;;;;18.63;9.77;;;5.50;99.90;;;;;;5040199;28;20136;-77
2022/03/28 07:31:10;;;;;;;23.25;10.43;;;5.50;99.90;;;;;;5040173;28;20077;-76
2022/03/28 07:33:38;;;;;;;16.13;8.57;;;5.50;99.90;;;;;;5040160;28;20459;-76
2022/03/28 07:36:04;;;;;;;20.20;9.27;;;5.50;99.90;;;;;;5040127;28;20045;-76
2022/03/28 07:38:30;;;;;;;20.05;9.82;;;5.60;99.90;;;;;;5040124;28;20052;-77
2022/03/28 07:40:55;;;;;;;16.83;8.57;;;5.60;99.90;;;;;;5039890;28;20401;-75
2022/03/28 07:43:21;;;;;;;18.92;9.50;;;5.70;99.90;;;;;;5022709;28;20049;-76
2022/03/28 07:45:48;;;;;;;17.13;7.97;;;5.70;99.90;;;;;;5040068;28;20045;-77
2022/03/28 07:48:14;;;;;;;17.23;7.75;;;5.70;99.90;;;;;;5039923;28;20049;-77
2022/03/28 07:50:40;;;;;;;14.40;7.03;;;5.70;99.90;;;;;;5040180;28;20072;-77
2022/03/28 07:53:07;;;;;;;12.77;6.20;;;5.80;99.90;;;;;;5040080;28;20481;-77
2022/03/28 07:55:33;;;;;;;13.10;6.28;;;5.70;99.90;;;;;;5039946;28;20138;-77
2022/03/28 07:58:02;;;;;;;12.57;6.53;;;5.70;99.90;;;;;;5039955;28;20050;-76
2022/03/28 08:00:29;;;;;;;10.23;5.60;;;5.70;99.90;;;;;;5039823;28;20401;-77
2022/03/28 08:02:55;;;;;;;11.10;5.63;;;5.80;99.90;;;;;;5039782;28;20041;-75
2022/03/28 08:05:21;;;;;;;9.55;5.13;;;5.80;99.90;;;;;;5039866;28;20041;-76
2022/03/28 08:07:48;;;;;;;12.48;5.60;;;5.90;99.90;;;;;;5039850;28;20041;-76
2022/03/28 08:10:14;;;;;;;11.07;5.30;;;5.90;99.90;;;;;;5039727;28;20130;-77
2022/03/28 08:12:42;;;;;;;9.32;4.72;;;5.90;99.90;;;;;;5039757;28;20130;-76
2022/03/28 08:15:09;;;;;;;14.45;5.72;;;6.00;99.90;;;;;;5039671;28;20049;-76
2022/03/28 08:17:35;;;;;;;;;;;6.10;99.90;;;;;;5040151;28;20060;-73
2022/03/28 08:20:01;;;;;;;10.32;5.15;;;6.10;99.90;;;;;;5039705;28;20016;-75
2022/03/28 08:22:27;;;;;;;11.63;5.38;;;6.10;99.90;;;;;;5039657;28;20128;-74
2022/03/28 08:24:52;;;;;;;10.48;5.15;;;6.10;99.90;;;;;;5039693;28;20037;-75
2022/03/28 08:27:18;;;;;;;9.77;4.80;;;6.20;99.90;;;;;;5039683;28;20517;-75
2022/03/28 08:29:43;;;;;;;9.15;4.88;;;6.20;99.90;;;;;;5039615;28;20089;-75
2022/03/28 08:32:09;;;;;;;9.68;5.18;;;6.20;99.90;;;;;;5039368;28;20060;-76
2022/03/28 08:34:35;;;;;;;9.43;5.15;;;6.20;99.90;;;;;;5039957;28;20487;-75
2022/03/28 08:37:02;;;;;;;10.00;5.25;;;6.30;99.90;;;;;;5038037;28;20045;-75
2022/03/28 08:39:27;;;;;;;8.82;4.57;;;6.40;99.90;;;;;;5036460;28;20049;-75
2022/03/28 08:41:53;;;;;;;8.07;4.72;;;6.40;99.90;;;;;;5036516;28;20041;-75
2022/03/28 08:44:20;;;;;;;10.10;4.97;;;6.40;99.90;;;;;;5036297;28;20046;-76
2022/03/28 08:46:48;;;;;;;9.15;4.68;;;6.40;99.90;;;;;;5036263;28;20100;-76
2022/03/28 08:49:14;;;;;;;8.90;4.72;;;6.40;99.90;;;;;;5036215;28;20056;-75
2022/03/28 08:51:39;;;;;;;8.25;4.47;;;6.40;99.90;;;;;;5036194;28;20131;-76
2022/03/28 08:54:05;;;;;;;9.55;4.78;;;6.50;99.90;;;;;;5036208;28;20049;-76
2022/03/28 08:56:30;;;;;;;11.00;4.43;;;6.50;99.90;;;;;;5035737;28;20580;-76
2022/03/28 08:58:56;;;;;;;8.30;4.07;;;6.40;99.90;;;;;;5036134;28;20045;-76
2022/03/28 09:01:23;;;;;;;9.10;3.90;;;6.60;99.90;;;;;;5035631;28;20132;-76
2022/03/28 09:03:49;;;;;;;8.05;4.30;;;6.60;99.90;;;;;;5036257;28;20136;-74
2022/03/28 09:06:33;;;;;;;8.30;4.25;;;6.60;99.90;;;;;;5036261;28;20049;-76
2022/03/28 09:09:18;;;;;;;8.73;4.40;;;6.70;99.90;;;;;;5035883;28;20061;-76
2022/03/28 09:11:51;;;;;;;9.00;4.68;;;6.80;99.90;;;;;;5035833;28;20044;-75
2022/03/28 09:14:27;;;;;;;6.40;3.42;;;6.90;99.90;;;;;;5035896;28;20060;-75
2022/03/28 09:17:05;;;;;;;9.20;4.45;;;6.90;99.90;;;;;;5036028;28;20042;-76
2022/03/28 09:19:43;;;;;;;;;;;7.10;99.90;;;;;;5036232;28;20037;-76
2022/03/28 09:22:16;;;;;;;8.05;3.80;;;7.20;99.90;;;;;;5035555;28;19975;-77
2022/03/28 09:24:42;;;;;;;5.93;3.45;;;7.30;99.90;;;;;;5035883;28;20414;-76
2022/03/28 09:27:20;;;;;;;6.50;4.03;;;7.30;99.90;;;;;;5035906;28;20053;-77
2022/03/28 09:29:53;;;;;;;7.90;3.88;;;7.40;99.90;;;;;;5035790;28;20380;-75
2022/03/28 09:32:23;;;;;;;8.23;4.28;;;7.50;99.90;;;;;;5035440;28;20050;-75
2022/03/28 09:35:06;;;;;;;7.28;3.80;;;7.60;99.90;;;;;;5035373;28;20116;-76
2022/03/28 09:37:47;;;;;;;8.57;3.72;;;7.70;99.90;;;;;;5035365;28;20042;-76
2022/03/28 09:40:28;;;;;;;7.22;3.70;;;7.70;99.90;;;;;;5035698;28;20462;-76
2022/03/28 09:42:56;;;;;;;6.13;3.80;;;7.70;99.90;;;;;;5017559;28;20045;-76
2022/03/28 09:45:34;;;;;;;7.15;4.20;;;7.70;99.90;;;;;;5035154;28;20103;-75
2022/03/28 09:48:07;;;;;;;6.05;3.80;;;7.60;99.90;;;;;;5035465;28;20041;-76
2022/03/28 09:50:37;;;;;;;7.72;3.97;;;7.60;99.90;;;;;;5035572;28;20400;-75
2022/03/28 09:53:09;;;;;;;7.65;3.83;;;7.40;99.90;;;;;;5035098;28;20124;-76
2022/03/28 09:55:49;;;;;;;7.03;4.35;;;7.40;99.90;;;;;;5034889;28;20511;-76
2022/03/28 09:58:44;;;;;;;6.05;3.45;;;7.50;99.90;;;;;;5035116;28;20055;-76
2022/03/28 10:01:15;;;;;;;6.30;3.63;;;7.60;99.90;;;;;;5035134;28;20045;-75
2022/03/28 10:03:44;;;;;;;6.32;3.80;;;7.70;99.90;;;;;;5034904;28;20133;-76
2022/03/28 10:06:10;;;;;;;5.85;3.80;;;7.70;99.90;;;;;;5034761;28;20076;-77
2022/03/28 10:08:37;;;;;;;5.57;3.60;;;7.80;99.90;;;;;;5035205;28;20123;-77
2022/03/28 10:11:03;;;;;;;6.22;3.58;;;7.80;99.90;;;;;;5034647;28;20505;-76
2022/03/28 10:13:30;;;;;;;7.33;3.60;;;7.80;99.90;;;;;;5035094;28;20049;-77
2022/03/28 10:15:57;;;;;;;5.57;3.83;;;7.90;99.90;;;;;;5034677;28;20469;-77
2022/03/28 10:18:26;;;;;;;5.13;3.47;;;7.90;99.90;;;;;;5034755;28;20080;-76
2022/03/28 10:20:54;;;;;;;7.80;4.32;;;8.10;99.90;;;;;;5034492;28;20124;-77
2022/03/28 10:23:26;;;;;;;11.30;3.97;;;8.20;99.90;;;;;;5034514;28;20140;-76
2022/03/28 10:25:55;;;;;;;5.93;3.88;;;8.30;99.90;;;;;;5034502;28;20038;-75
2022/03/28 10:28:20;;;;;;;6.00;4.07;;;8.50;99.90;;;;;;5034366;28;20049;-76
2022/03/28 10:30:46;;;;;;;8.18;4.25;;;8.60;99.90;;;;;;5034367;28;20409;-77
2022/03/28 10:33:16;;;;;;;5.93;3.78;;;8.60;99.90;;;;;;5034290;28;20041;-77
2022/03/28 10:35:58;;;;;;;6.93;3.90;;;8.70;99.90;;;;;;5034246;28;20042;-77
2022/03/28 10:38:24;;;;;;;7.20;3.85;;;8.80;99.90;;;;;;5034507;28;20052;-77
2022/03/28 10:41:00;;;;;;;5.43;3.58;;;9.00;99.90;;;;;;5034232;28;20463;-76
2022/03/28 10:43:28;;;;;;;5.65;3.83;;;9.10;99.90;;;;;;5033931;28;20052;-76
2022/03/28 10:45:57;;;;;;;7.22;3.90;;;9.20;99.90;;;;;;5033963;28;20150;-75
2022/03/28 10:48:53;;;;;;;5.93;3.92;;;9.30;99.90;;;;;;5034015;28;20041;-77
2022/03/28 10:51:26;;;;;;;6.07;3.97;;;9.40;99.90;;;;;;5034268;28;20081;-75
2022/03/28 10:53:52;;;;;;;10.35;4.13;;;9.50;99.90;;;;;;5033887;28;20041;-78
2022/03/28 10:56:27;;;;;;;6.55;4.22;;;9.70;99.90;;;;;;5033846;28;20050;-74
2022/03/28 10:58:55;;;;;;;6.72;4.10;;;9.60;99.90;;;;;;5034316;28;20107;-76
2022/03/28 11:01:23;;;;;;;6.97;4.05;;;9.50;99.90;;;;;;5033389;28;20080;-76
2022/03/28 11:03:53;;;;;;;7.00;4.63;;;9.30;99.90;;;;;;5033777;28;20056;-76
2022/03/28 11:06:40;;;;;;;7.07;4.63;;;9.50;99.90;;;;;;5016348;28;20128;-77
2022/03/28 11:09:05;;;;;;;6.90;4.15;;;9.60;99.90;;;;;;5033620;28;20132;-77
2022/03/28 11:11:33;;;;;;;6.28;4.18;;;9.60;99.90;;;;;;5033726;28;20540;-76
2022/03/28 11:14:08;;;;;;;5.55;3.67;;;9.80;99.90;;;;;;5033717;28;20060;-76
2022/03/28 11:16:54;;;;;;;8.43;4.30;;;9.90;99.90;;;;;;5033726;28;20068;-76
2022/03/28 11:19:22;;;;;;;6.90;4.28;;;9.90;99.90;;;;;;5032541;28;20516;-76
2022/03/28 11:21:59;;;;;;;7.97;4.07;;;10.00;99.90;;;;;;5033437;28;20199;-75
2022/03/28 11:24:45;;;;;;;8.25;4.60;;;10.20;99.90;;;;;;5033841;28;20045;-76
2022/03/28 11:27:13;;;;;;;7.30;4.57;;;10.40;99.90;;;;;;5033612;28;20077;-75
2022/03/28 11:29:38;;;;;;;7.95;4.53;;;10.70;99.90;;;;;;5033418;28;20104;-77
2022/03/28 11:32:06;;;;;;;7.75;4.60;;;11.00;99.90;;;;;;5033951;28;20049;-75
2022/03/28 11:34:32;;;;;;;7.15;4.30;;;11.00;99.90;;;;;;5034127;28;20050;-75
2022/03/28 11:36:58;;;;;;;5.55;3.80;;;11.10;99.90;;;;;;5032643;28;20053;-76
2022/03/28 11:39:26;;;;;;;7.70;4.38;;;11.10;99.90;;;;;;5034005;28;20053;-75
2022/03/28 11:41:53;;;;;;;7.75;4.22;;;11.00;99.90;;;;;;5033299;28;20055;-75
2022/03/28 11:44:18;;;;;;;8.40;5.05;;;11.00;99.90;;;;;;5033392;28;20436;-76
2022/03/28 11:46:54;;;;;;;6.40;4.30;;;11.10;99.90;;;;;;5033496;28;20038;-77
2022/03/28 11:49:19;;;;;;;6.43;4.38;;;10.90;99.90;;;;;;5033458;28;20053;-75
2022/03/28 11:51:45;;;;;;;7.63;4.65;;;10.90;99.90;;;;;;5033395;28;20038;-77
2022/03/28 11:54:13;;;;;;;6.30;4.38;;;11.00;99.90;;;;;;5033473;28;20497;-75
2022/03/28 11:59:26;;;;;;;8.65;4.70;;;10.80;99.90;;;;;;5033740;28;20093;-75
2022/03/28 12:01:55;;;;;;;;;;;10.90;99.90;;;;;;5033104;28;20631;-78
2022/03/28 12:04:21;;;;;;;6.80;4.32;;;10.90;99.90;;;;;;5031705;28;19932;-77
2022/03/28 12:06:46;;;;;;;8.90;4.72;;;10.90;99.90;;;;;;5033087;28;20083;-77
2022/03/28 12:09:16;;;;;;;6.93;4.57;;;10.90;99.90;;;;;;5033268;28;20076;-76
2022/03/28 12:11:48;;;;;;;7.05;4.50;;;11.00;99.90;;;;;;5032973;28;20392;-75
2022/03/28 12:14:15;;;;;;;9.90;5.22;;;11.10;99.90;;;;;;5037038;28;20474;-76
2022/03/28 12:16:45;;;;;;;6.95;4.90;;;11.30;99.90;;;;;;5036680;28;20045;-76
2022/03/28 12:19:18;;;;;;;7.88;4.97;;;11.20;99.90;;;;;;5036757;28;20428;-77
2022/03/28 12:21:43;;;;;;;8.10;5.25;;;11.30;99.90;;;;;;5036621;28;20095;-76
2022/03/28 12:24:09;;;;;;;7.55;4.65;;;11.30;99.90;;;;;;5036582;28;20481;-77
2022/03/28 12:26:43;;;;;;;7.60;5.45;;;11.30;99.90;;;;;;5036962;28;20049;-76
2022/03/28 12:29:11;;;;;;;9.65;5.20;;;11.40;99.90;;;;;;5035988;28;20501;-78
2022/03/28 12:31:40;;;;;;;10.35;5.60;;;11.50;99.90;;;;;;5036506;28;20099;-77
2022/03/28 12:34:06;;;;;;;8.32;5.45;;;11.70;99.90;;;;;;5036344;28;20119;-77
2022/03/28 12:36:34;;;;;;;8.38;5.55;;;11.70;99.90;;;;;;5036295;28;20045;-77
2022/03/28 12:39:04;;;;;;;9.32;6.10;;;11.90;99.90;;;;;;5036230;28;20046;-77
2022/03/28 12:41:31;;;;;;;8.43;5.70;;;12.00;99.90;;;;;;5018952;28;20083;-76
2022/03/28 12:43:57;;;;;;;;;;;12.20;99.90;;;;;;5036657;28;20080;-76
2022/03/28 12:46:24;;;;;;;10.20;5.55;;;12.20;99.90;;;;;;5036217;28;19968;-76
2022/03/28 12:48:50;;;;;;;;;;;12.20;99.90;;;;;;5036563;28;20088;-77
2022/03/28 12:51:26;;;;;;;9.52;6.13;;;12.40;99.90;;;;;;5036105;28;19921;-76
2022/03/28 12:54:04;;;;;;;10.93;5.50;;;12.40;99.90;;;;;;5035873;28;20374;-75